sensor_id;sensor_type;location;lat;lon;timestamp;pressure;altitude;pressure_sealevel;temperature;humidity
22753;BME280;11543;43.144;24.684;2023-10-08T00:00:45;99084.81;;;16.05;48.28
22753;BME280;11543;43.144;24.684;2023-10-08T00:03:19;99092.75;;;16.06;48.22
22753;BME280;11543;43.144;24.684;2023-10-08T00:05:48;99091.16;;;16.12;47.83
22753;BME280;11543;43.144;24.684;2023-10-08T00:08:17;99081.81;;;16.00;48.08
22753;BME280;11543;43.144;24.684;2023-10-08T00:10:43;99072.69;;;16.01;48.38
22753;BME280;11543;43.144;24.684;2023-10-08T00:13:13;99063.91;;;15.99;48.29
22753;BME280;11543;43.144;24.684;2023-10-08T00:15:42;99052.13;;;15.91;48.21
22753;BME280;11543;43.144;24.684;2023-10-08T00:18:19;99075.09;;;15.96;48.27
22753;BME280;11543;43.144;24.684;2023-10-08T00:20:45;99061.28;;;15.90;48.18
22753;BME280;11543;43.144;24.684;2023-10-08T00:23:21;99064.28;;;15.96;48.25
22753;BME280;11543;43.144;24.684;2023-10-08T00:25:47;99060.91;;;15.93;47.97
22753;BME280;11543;43.144;24.684;2023-10-08T00:28:15;99058.75;;;15.89;48.35
22753;BME280;11543;43.144;24.684;2023-10-08T00:30:42;99065.56;;;15.85;48.50
22753;BME280;11543;43.144;24.684;2023-10-08T00:33:11;99068.16;;;15.78;48.76
22753;BME280;11543;43.144;24.684;2023-10-08T00:35:41;99066.47;;;15.77;48.57
22753;BME280;11543;43.144;24.684;2023-10-08T00:38:09;99044.25;;;15.67;48.86
22753;BME280;11543;43.144;24.684;2023-10-08T00:40:45;99051.34;;;15.68;48.82
22753;BME280;11543;43.144;24.684;2023-10-08T00:43:37;99060.41;;;15.75;49.04
22753;BME280;11543;43.144;24.684;2023-10-08T00:46:06;99058.78;;;15.66;48.93
22753;BME280;11543;43.144;24.684;2023-10-08T00:48:51;99051.56;;;15.58;49.00
22753;BME280;11543;43.144;24.684;2023-10-08T00:51:19;99067.94;;;15.65;49.32
22753;BME280;11543;43.144;24.684;2023-10-08T00:53:54;99050.09;;;15.48;49.61
22753;BME280;11543;43.144;24.684;2023-10-08T00:56:28;99068.00;;;15.49;49.59
22753;BME280;11543;43.144;24.684;2023-10-08T00:59:12;99051.91;;;15.33;49.74
22753;BME280;11543;43.144;24.684;2023-10-08T01:01:45;99046.50;;;15.33;49.82
22753;BME280;11543;43.144;24.684;2023-10-08T01:04:23;99059.00;;;15.34;50.23
22753;BME280;11543;43.144;24.684;2023-10-08T01:06:52;99052.63;;;15.26;50.07
22753;BME280;11543;43.144;24.684;2023-10-08T01:09:25;99063.25;;;15.28;50.23
22753;BME280;11543;43.144;24.684;2023-10-08T01:14:48;99059.72;;;15.27;50.17
22753;BME280;11543;43.144;24.684;2023-10-08T01:17:15;99046.25;;;15.19;49.95
22753;BME280;11543;43.144;24.684;2023-10-08T01:19:45;99049.63;;;15.21;50.02
22753;BME280;11543;43.144;24.684;2023-10-08T01:22:25;99045.25;;;15.20;50.02
22753;BME280;11543;43.144;24.684;2023-10-08T01:24:54;99035.94;;;15.23;49.72
22753;BME280;11543;43.144;24.684;2023-10-08T01:27:19;99050.59;;;15.28;50.07
22753;BME280;11543;43.144;24.684;2023-10-08T01:29:50;99028.72;;;15.15;50.08
22753;BME280;11543;43.144;24.684;2023-10-08T01:32:25;99037.97;;;15.21;50.15
22753;BME280;11543;43.144;24.684;2023-10-08T01:34:50;99041.81;;;15.26;49.85
22753;BME280;11543;43.144;24.684;2023-10-08T01:37:17;99034.72;;;15.25;49.73
22753;BME280;11543;43.144;24.684;2023-10-08T01:39:46;99045.47;;;15.34;49.59
22753;BME280;11543;43.144;24.684;2023-10-08T01:42:15;99043.13;;;15.30;49.92
22753;BME280;11543;43.144;24.684;2023-10-08T01:44:49;99045.84;;;15.30;49.89
22753;BME280;11543;43.144;24.684;2023-10-08T01:47:20;99027.28;;;15.27;49.86
22753;BME280;11543;43.144;24.684;2023-10-08T01:49:46;99033.72;;;15.26;49.89
22753;BME280;11543;43.144;24.684;2023-10-08T01:52:12;99036.06;;;15.29;49.95
22753;BME280;11543;43.144;24.684;2023-10-08T01:54:48;99012.50;;;15.15;49.84
22753;BME280;11543;43.144;24.684;2023-10-08T01:57:15;99031.72;;;15.20;50.37
22753;BME280;11543;43.144;24.684;2023-10-08T01:59:40;99007.03;;;15.01;50.56
22753;BME280;11543;43.144;24.684;2023-10-08T02:02:06;99034.50;;;15.12;50.58
22753;BME280;11543;43.144;24.684;2023-10-08T02:04:36;99022.72;;;15.05;50.45
22753;BME280;11543;43.144;24.684;2023-10-08T02:07:04;99039.53;;;15.15;50.12
22753;BME280;11543;43.144;24.684;2023-10-08T02:09:36;99038.22;;;15.11;50.05
22753;BME280;11543;43.144;24.684;2023-10-08T02:12:02;99021.75;;;14.98;50.06
22753;BME280;11543;43.144;24.684;2023-10-08T02:14:29;99043.63;;;15.11;50.02
22753;BME280;11543;43.144;24.684;2023-10-08T02:16:57;99027.63;;;15.02;49.86
22753;BME280;11543;43.144;24.684;2023-10-08T02:19:27;99019.34;;;15.03;49.78
22753;BME280;11543;43.144;24.684;2023-10-08T02:21:56;99030.75;;;15.13;49.57
22753;BME280;11543;43.144;24.684;2023-10-08T02:24:23;99021.03;;;15.04;48.96
22753;BME280;11543;43.144;24.684;2023-10-08T02:26:53;99020.19;;;15.04;46.90
22753;BME280;11543;43.144;24.684;2023-10-08T02:29:20;98993.41;;;14.94;45.01
22753;BME280;11543;43.144;24.684;2023-10-08T02:31:47;99037.97;;;15.21;43.99
22753;BME280;11543;43.144;24.684;2023-10-08T02:34:13;99017.13;;;15.29;43.42
22753;BME280;11543;43.144;24.684;2023-10-08T02:36:39;99027.16;;;15.44;42.76
22753;BME280;11543;43.144;24.684;2023-10-08T02:39:09;99026.06;;;15.53;42.48
22753;BME280;11543;43.144;24.684;2023-10-08T02:41:48;99024.34;;;15.60;42.54
22753;BME280;11543;43.144;24.684;2023-10-08T02:44:16;99026.72;;;15.63;42.25
22753;BME280;11543;43.144;24.684;2023-10-08T02:46:43;99019.34;;;15.72;41.88
22753;BME280;11543;43.144;24.684;2023-10-08T02:49:15;99004.53;;;15.68;41.16
22753;BME280;11543;43.144;24.684;2023-10-08T02:51:46;98992.41;;;15.78;40.68
22753;BME280;11543;43.144;24.684;2023-10-08T02:54:11;99004.81;;;15.87;40.31
22753;BME280;11543;43.144;24.684;2023-10-08T02:56:44;99012.75;;;16.04;40.61
22753;BME280;11543;43.144;24.684;2023-10-08T02:59:13;99013.34;;;16.14;39.88
22753;BME280;11543;43.144;24.684;2023-10-08T03:01:40;99012.59;;;16.20;39.85
22753;BME280;11543;43.144;24.684;2023-10-08T03:04:07;99006.88;;;16.30;39.71
22753;BME280;11543;43.144;24.684;2023-10-08T03:06:43;99009.88;;;16.35;39.85
22753;BME280;11543;43.144;24.684;2023-10-08T03:09:10;98993.81;;;16.33;39.89
22753;BME280;11543;43.144;24.684;2023-10-08T03:11:39;99007.53;;;16.46;39.78
22753;BME280;11543;43.144;24.684;2023-10-08T03:14:05;99015.38;;;16.56;39.20
22753;BME280;11543;43.144;24.684;2023-10-08T03:16:39;98992.09;;;16.47;39.52
22753;BME280;11543;43.144;24.684;2023-10-08T03:19:06;99009.03;;;16.64;39.51
22753;BME280;11543;43.144;24.684;2023-10-08T03:21:32;99003.13;;;16.60;40.33
22753;BME280;11543;43.144;24.684;2023-10-08T03:24:03;99006.31;;;16.64;40.41
22753;BME280;11543;43.144;24.684;2023-10-08T03:26:49;98991.84;;;16.56;41.20
22753;BME280;11543;43.144;24.684;2023-10-08T03:29:20;99012.41;;;16.66;42.23
22753;BME280;11543;43.144;24.684;2023-10-08T03:31:46;99007.81;;;16.51;42.79
22753;BME280;11543;43.144;24.684;2023-10-08T03:34:12;99009.22;;;16.47;43.29
22753;BME280;11543;43.144;24.684;2023-10-08T03:36:41;98997.81;;;16.37;43.63
22753;BME280;11543;43.144;24.684;2023-10-08T03:39:16;98993.16;;;16.31;43.93
22753;BME280;11543;43.144;24.684;2023-10-08T03:41:44;99007.34;;;16.33;44.42
22753;BME280;11543;43.144;24.684;2023-10-08T03:44:28;98999.31;;;16.25;44.48
22753;BME280;11543;43.144;24.684;2023-10-08T03:46:55;98999.69;;;16.22;44.58
22753;BME280;11543;43.144;24.684;2023-10-08T03:49:22;98982.91;;;16.12;44.64
22753;BME280;11543;43.144;24.684;2023-10-08T03:51:48;98978.63;;;16.03;44.80
22753;BME280;11543;43.144;24.684;2023-10-08T03:54:20;99002.88;;;16.11;45.13
22753;BME280;11543;43.144;24.684;2023-10-08T03:56:55;98979.72;;;15.93;45.34
22753;BME280;11543;43.144;24.684;2023-10-08T03:59:21;98993.53;;;15.99;45.26
22753;BME280;11543;43.144;24.684;2023-10-08T04:02:05;98975.06;;;15.87;45.00
22753;BME280;11543;43.144;24.684;2023-10-08T04:04:47;98991.31;;;15.87;45.33
22753;BME280;11543;43.144;24.684;2023-10-08T04:07:24;98987.28;;;15.83;45.61
22753;BME280;11543;43.144;24.684;2023-10-08T04:09:54;98987.47;;;15.82;45.64
22753;BME280;11543;43.144;24.684;2023-10-08T04:12:34;98979.44;;;15.74;45.98
22753;BME280;11543;43.144;24.684;2023-10-08T04:15:04;98986.25;;;15.70;45.94
22753;BME280;11543;43.144;24.684;2023-10-08T04:17:35;98979.69;;;15.64;45.95
22753;BME280;11543;43.144;24.684;2023-10-08T04:20:14;98976.34;;;15.62;46.35
22753;BME280;11543;43.144;24.684;2023-10-08T04:23:18;98970.75;;;15.55;46.28
22753;BME280;11543;43.144;24.684;2023-10-08T04:25:46;98963.00;;;15.38;46.61
22753;BME280;11543;43.144;24.684;2023-10-08T04:28:12;98963.19;;;15.36;46.76
22753;BME280;11543;43.144;24.684;2023-10-08T04:30:39;98963.72;;;15.32;46.99
22753;BME280;11543;43.144;24.684;2023-10-08T04:33:07;98965.09;;;15.27;46.99
22753;BME280;11543;43.144;24.684;2023-10-08T04:35:37;98975.56;;;15.30;47.25
22753;BME280;11543;43.144;24.684;2023-10-08T04:38:14;98965.78;;;15.29;47.27
22753;BME280;11543;43.144;24.684;2023-10-08T04:40:42;98964.81;;;15.22;47.20
22753;BME280;11543;43.144;24.684;2023-10-08T04:43:17;98966.84;;;15.20;46.50
22753;BME280;11543;43.144;24.684;2023-10-08T04:45:57;98970.59;;;15.19;45.65
22753;BME280;11543;43.144;24.684;2023-10-08T04:48:25;98954.25;;;15.13;45.06
22753;BME280;11543;43.144;24.684;2023-10-08T04:50:55;98970.59;;;15.19;44.14
22753;BME280;11543;43.144;24.684;2023-10-08T04:53:25;98969.50;;;15.28;43.23
22753;BME280;11543;43.144;24.684;2023-10-08T04:55:57;98959.16;;;15.32;43.04
22753;BME280;11543;43.144;24.684;2023-10-08T04:58:25;98959.25;;;15.39;43.53
22753;BME280;11543;43.144;24.684;2023-10-08T05:00:59;98958.25;;;15.40;44.32
22753;BME280;11543;43.144;24.684;2023-10-08T05:03:45;98961.06;;;15.46;45.10
22753;BME280;11543;43.144;24.684;2023-10-08T05:06:24;98952.09;;;15.46;45.52
22753;BME280;11543;43.144;24.684;2023-10-08T05:09:05;98954.06;;;15.52;45.71
22753;BME280;11543;43.144;24.684;2023-10-08T05:11:44;98957.06;;;15.57;45.62
22753;BME280;11543;43.144;24.684;2023-10-08T05:14:16;98956.41;;;15.55;46.00
22753;BME280;11543;43.144;24.684;2023-10-08T05:17:00;98961.78;;;15.63;46.03
22753;BME280;11543;43.144;24.684;2023-10-08T05:19:29;98956.38;;;15.63;46.07
22753;BME280;11543;43.144;24.684;2023-10-08T05:22:16;98967.41;;;15.76;45.70
22753;BME280;11543;43.144;24.684;2023-10-08T05:24:55;98964.16;;;15.81;45.16
22753;BME280;11543;43.144;24.684;2023-10-08T05:27:38;98964.72;;;15.91;44.86
22753;BME280;11543;43.144;24.684;2023-10-08T05:30:14;98964.81;;;15.98;42.90
22753;BME280;11543;43.144;24.684;2023-10-08T05:32:54;98953.22;;;16.04;40.74
22753;BME280;11543;43.144;24.684;2023-10-08T05:35:29;98960.69;;;16.16;39.58
22753;BME280;11543;43.144;24.684;2023-10-08T05:38:04;98965.31;;;16.37;39.62
22753;BME280;11543;43.144;24.684;2023-10-08T05:40:43;98973.84;;;16.49;37.94
22753;BME280;11543;43.144;24.684;2023-10-08T05:43:34;98963.66;;;16.66;38.05
22753;BME280;11543;43.144;24.684;2023-10-08T05:46:10;98959.66;;;16.83;37.68
22753;BME280;11543;43.144;24.684;2023-10-08T05:48:55;98960.63;;;16.97;37.88
22753;BME280;11543;43.144;24.684;2023-10-08T05:51:38;98961.72;;;17.24;36.68
22753;BME280;11543;43.144;24.684;2023-10-08T05:54:16;98947.59;;;17.28;36.35
22753;BME280;11543;43.144;24.684;2023-10-08T05:56:55;98953.59;;;17.45;36.88
22753;BME280;11543;43.144;24.684;2023-10-08T05:59:41;98963.00;;;17.70;36.27
22753;BME280;11543;43.144;24.684;2023-10-08T06:02:29;98977.31;;;17.86;35.65
22753;BME280;11543;43.144;24.684;2023-10-08T06:05:05;98955.66;;;17.99;35.23
22753;BME280;11543;43.144;24.684;2023-10-08T06:07:42;98953.66;;;18.14;34.84
22753;BME280;11543;43.144;24.684;2023-10-08T06:10:31;98949.19;;;18.34;34.87
22753;BME280;11543;43.144;24.684;2023-10-08T06:13:05;98938.81;;;18.51;34.45
22753;BME280;11543;43.144;24.684;2023-10-08T06:16:06;98934.91;;;18.67;34.33
22753;BME280;11543;43.144;24.684;2023-10-08T06:18:33;98932.25;;;18.80;33.86
22753;BME280;11543;43.144;24.684;2023-10-08T06:21:04;98924.72;;;18.95;33.57
22753;BME280;11543;43.144;24.684;2023-10-08T06:23:41;98920.16;;;19.02;33.43
22753;BME280;11543;43.144;24.684;2023-10-08T06:26:07;98936.94;;;19.26;33.37
22753;BME280;11543;43.144;24.684;2023-10-08T06:28:37;98918.94;;;19.31;32.76
22753;BME280;11543;43.144;24.684;2023-10-08T06:31:05;98923.97;;;19.54;32.59
22753;BME280;11543;43.144;24.684;2023-10-08T06:33:36;98916.00;;;19.59;32.01
22753;BME280;11543;43.144;24.684;2023-10-08T06:36:03;98920.16;;;19.82;32.25
22753;BME280;11543;43.144;24.684;2023-10-08T06:38:49;98915.94;;;19.92;31.91
22753;BME280;11543;43.144;24.684;2023-10-08T06:41:15;98913.44;;;20.04;31.99
22753;BME280;11543;43.144;24.684;2023-10-08T06:43:47;98920.06;;;20.21;31.65
22753;BME280;11543;43.144;24.684;2023-10-08T06:46:29;98911.22;;;20.32;31.51
22753;BME280;11543;43.144;24.684;2023-10-08T06:49:02;98910.38;;;20.39;31.34
22753;BME280;11543;43.144;24.684;2023-10-08T06:51:28;98898.81;;;20.50;31.58
22753;BME280;11543;43.144;24.684;2023-10-08T06:53:56;98920.28;;;20.71;31.58
22753;BME280;11543;43.144;24.684;2023-10-08T06:56:25;98900.16;;;20.72;31.20
22753;BME280;11543;43.144;24.684;2023-10-08T06:58:50;98899.03;;;20.86;31.23
22753;BME280;11543;43.144;24.684;2023-10-08T07:01:22;98892.25;;;20.95;31.13
22753;BME280;11543;43.144;24.684;2023-10-08T07:03:53;98923.41;;;21.13;31.26
22753;BME280;11543;43.144;24.684;2023-10-08T07:06:25;98916.00;;;21.20;31.03
22753;BME280;11543;43.144;24.684;2023-10-08T07:08:52;98901.06;;;21.29;31.05
22753;BME280;11543;43.144;24.684;2023-10-08T07:11:21;98894.72;;;21.35;30.92
22753;BME280;11543;43.144;24.684;2023-10-08T07:13:48;98905.44;;;21.55;30.55
22753;BME280;11543;43.144;24.684;2023-10-08T07:16:14;98895.25;;;21.69;30.82
22753;BME280;11543;43.144;24.684;2023-10-08T07:18:43;98886.31;;;21.80;30.49
22753;BME280;11543;43.144;24.684;2023-10-08T07:21:13;98876.91;;;21.94;30.34
22753;BME280;11543;43.144;24.684;2023-10-08T07:23:39;98888.94;;;22.11;30.39
22753;BME280;11543;43.144;24.684;2023-10-08T07:26:28;98881.13;;;22.15;29.84
22753;BME280;11543;43.144;24.684;2023-10-08T07:29:06;98882.84;;;22.28;29.76
22753;BME280;11543;43.144;24.684;2023-10-08T07:31:36;98881.75;;;22.47;29.55
22753;BME280;11543;43.144;24.684;2023-10-08T07:34:03;98874.47;;;22.59;29.29
22753;BME280;11543;43.144;24.684;2023-10-08T07:36:42;98872.16;;;22.74;29.42
22753;BME280;11543;43.144;24.684;2023-10-08T07:39:08;98878.31;;;23.00;28.94
22753;BME280;11543;43.144;24.684;2023-10-08T07:41:46;98845.13;;;23.08;28.18
22753;BME280;11543;43.144;24.684;2023-10-08T07:44:13;98848.13;;;23.30;28.14
22753;BME280;11543;43.144;24.684;2023-10-08T07:46:38;98865.19;;;23.43;28.02
22753;BME280;11543;43.144;24.684;2023-10-08T07:49:04;98853.53;;;23.48;27.50
22753;BME280;11543;43.144;24.684;2023-10-08T07:51:30;98850.22;;;23.58;27.57
22753;BME280;11543;43.144;24.684;2023-10-08T07:53:56;98857.22;;;23.65;28.18
22753;BME280;11543;43.144;24.684;2023-10-08T07:56:22;98858.28;;;23.76;27.67
22753;BME280;11543;43.144;24.684;2023-10-08T07:58:49;98858.78;;;23.73;27.60
22753;BME280;11543;43.144;24.684;2023-10-08T08:01:15;98860.66;;;23.84;28.06
22753;BME280;11543;43.144;24.684;2023-10-08T08:03:41;98852.81;;;23.76;27.46
22753;BME280;11543;43.144;24.684;2023-10-08T08:06:08;98847.34;;;23.76;27.20
22753;BME280;11543;43.144;24.684;2023-10-08T08:08:38;98854.69;;;23.87;27.72
22753;BME280;11543;43.144;24.684;2023-10-08T08:11:08;98856.84;;;23.85;27.36
22753;BME280;11543;43.144;24.684;2023-10-08T08:13:44;98846.25;;;23.77;27.72
22753;BME280;11543;43.144;24.684;2023-10-08T08:16:16;98840.53;;;23.90;27.84
22753;BME280;11543;43.144;24.684;2023-10-08T08:18:50;98838.00;;;24.00;27.30
22753;BME280;11543;43.144;24.684;2023-10-08T08:21:19;98834.38;;;24.11;27.40
22753;BME280;11543;43.144;24.684;2023-10-08T08:23:46;98823.13;;;24.25;27.29
22753;BME280;11543;43.144;24.684;2023-10-08T08:26:21;98827.06;;;24.40;27.14
22753;BME280;11543;43.144;24.684;2023-10-08T08:28:57;98827.13;;;24.57;27.10
22753;BME280;11543;43.144;24.684;2023-10-08T08:31:24;98814.91;;;24.65;27.39
22753;BME280;11543;43.144;24.684;2023-10-08T08:33:51;98801.13;;;24.76;27.14
22753;BME280;11543;43.144;24.684;2023-10-08T08:36:26;98813.06;;;24.99;27.09
22753;BME280;11543;43.144;24.684;2023-10-08T08:38:52;98807.75;;;25.09;27.04
22753;BME280;11543;43.144;24.684;2023-10-08T08:41:21;98810.84;;;25.29;26.85
22753;BME280;11543;43.144;24.684;2023-10-08T08:43:53;98799.41;;;25.37;26.13
22753;BME280;11543;43.144;24.684;2023-10-08T08:46:35;98795.25;;;25.35;26.38
22753;BME280;11543;43.144;24.684;2023-10-08T08:49:10;98791.75;;;25.39;26.51
22753;BME280;11543;43.144;24.684;2023-10-08T08:51:38;98791.25;;;25.43;26.71
22753;BME280;11543;43.144;24.684;2023-10-08T08:54:05;98793.56;;;25.51;26.61
22753;BME280;11543;43.144;24.684;2023-10-08T08:56:37;98769.94;;;25.50;26.57
22753;BME280;11543;43.144;24.684;2023-10-08T08:59:05;98785.06;;;25.69;26.38
22753;BME280;11543;43.144;24.684;2023-10-08T09:01:32;98779.00;;;25.89;26.53
22753;BME280;11543;43.144;24.684;2023-10-08T09:03:59;98788.72;;;25.96;26.08
22753;BME280;11543;43.144;24.684;2023-10-08T09:06:26;98771.28;;;26.08;26.25
22753;BME280;11543;43.144;24.684;2023-10-08T09:08:53;98786.75;;;26.14;26.31
22753;BME280;11543;43.144;24.684;2023-10-08T09:11:21;98774.72;;;26.20;25.72
22753;BME280;11543;43.144;24.684;2023-10-08T09:13:46;98775.47;;;26.37;26.04
22753;BME280;11543;43.144;24.684;2023-10-08T09:16:16;98768.94;;;26.43;25.63
22753;BME280;11543;43.144;24.684;2023-10-08T09:18:47;98764.09;;;26.55;25.60
22753;BME280;11543;43.144;24.684;2023-10-08T09:21:19;98757.03;;;26.64;25.59
22753;BME280;11543;43.144;24.684;2023-10-08T09:23:49;98766.53;;;26.79;25.66
22753;BME280;11543;43.144;24.684;2023-10-08T09:26:18;98751.44;;;26.86;25.61
22753;BME280;11543;43.144;24.684;2023-10-08T09:28:47;98745.81;;;26.98;25.54
22753;BME280;11543;43.144;24.684;2023-10-08T09:31:14;98758.81;;;27.08;25.02
22753;BME280;11543;43.144;24.684;2023-10-08T09:33:53;98747.00;;;27.12;24.90
22753;BME280;11543;43.144;24.684;2023-10-08T09:36:18;98741.53;;;27.17;24.57
22753;BME280;11543;43.144;24.684;2023-10-08T09:38:46;98741.09;;;27.36;24.99
22753;BME280;11543;43.144;24.684;2023-10-08T09:41:17;98742.25;;;27.45;24.85
22753;BME280;11543;43.144;24.684;2023-10-08T09:43:44;98730.75;;;27.58;24.93
22753;BME280;11543;43.144;24.684;2023-10-08T09:46:19;98722.66;;;27.83;24.67
22753;BME280;11543;43.144;24.684;2023-10-08T09:48:52;98744.81;;;28.14;24.32
22753;BME280;11543;43.144;24.684;2023-10-08T09:51:20;98729.16;;;28.35;24.25
22753;BME280;11543;43.144;24.684;2023-10-08T09:56:15;98733.88;;;28.60;23.94
22753;BME280;11543;43.144;24.684;2023-10-08T09:58:43;98717.03;;;28.56;23.96
22753;BME280;11543;43.144;24.684;2023-10-08T10:01:10;98707.91;;;28.50;23.95
22753;BME280;11543;43.144;24.684;2023-10-08T10:03:36;98711.22;;;28.47;23.99
22753;BME280;11543;43.144;24.684;2023-10-08T10:06:02;98717.06;;;28.61;24.08
22753;BME280;11543;43.144;24.684;2023-10-08T10:08:28;98704.59;;;28.53;24.12
22753;BME280;11543;43.144;24.684;2023-10-08T10:11:01;98709.31;;;28.58;23.91
22753;BME280;11543;43.144;24.684;2023-10-08T10:13:28;98697.41;;;28.32;24.20
22753;BME280;11543;43.144;24.684;2023-10-08T10:15:55;98716.47;;;28.34;24.80
22753;BME280;11543;43.144;24.684;2023-10-08T10:20:52;98717.84;;;28.41;24.83
22753;BME280;11543;43.144;24.684;2023-10-08T10:23:37;98719.50;;;28.52;24.65
22753;BME280;11543;43.144;24.684;2023-10-08T10:26:04;98706.81;;;28.51;23.99
22753;BME280;11543;43.144;24.684;2023-10-08T10:28:30;98709.56;;;28.57;24.39
22753;BME280;11543;43.144;24.684;2023-10-08T10:30:55;98720.91;;;28.60;24.63
22753;BME280;11543;43.144;24.684;2023-10-08T10:33:29;98705.16;;;28.61;24.50
22753;BME280;11543;43.144;24.684;2023-10-08T10:35:55;98720.09;;;28.80;24.66
22753;BME280;11543;43.144;24.684;2023-10-08T10:38:21;98697.47;;;28.73;24.49
22753;BME280;11543;43.144;24.684;2023-10-08T10:40:51;98705.75;;;28.78;24.38
22753;BME280;11543;43.144;24.684;2023-10-08T10:43:25;98710.72;;;29.01;24.32
22753;BME280;11543;43.144;24.684;2023-10-08T10:46:01;98698.53;;;29.12;24.41
22753;BME280;11543;43.144;24.684;2023-10-08T10:49:05;98692.97;;;29.28;23.70
22753;BME280;11543;43.144;24.684;2023-10-08T10:51:50;98692.44;;;29.21;23.73
22753;BME280;11543;43.144;24.684;2023-10-08T10:54:29;98691.31;;;29.27;23.54
22753;BME280;11543;43.144;24.684;2023-10-08T10:57:01;98691.84;;;29.44;24.00
22753;BME280;11543;43.144;24.684;2023-10-08T10:59:43;98686.88;;;29.51;24.00
22753;BME280;11543;43.144;24.684;2023-10-08T11:02:19;98677.44;;;29.62;23.54
22753;BME280;11543;43.144;24.684;2023-10-08T11:04:56;98674.66;;;29.67;23.84
22753;BME280;11543;43.144;24.684;2023-10-08T11:07:33;98665.25;;;29.68;24.00
22753;BME280;11543;43.144;24.684;2023-10-08T11:10:00;98658.63;;;29.64;24.42
22753;BME280;11543;43.144;24.684;2023-10-08T11:12:26;98677.41;;;29.67;24.73
22753;BME280;11543;43.144;24.684;2023-10-08T11:15:11;98658.06;;;29.67;24.72
22753;BME280;11543;43.144;24.684;2023-10-08T11:17:41;98640.97;;;29.55;24.98
22753;BME280;11543;43.144;24.684;2023-10-08T11:20:24;98642.66;;;29.51;25.05
22753;BME280;11543;43.144;24.684;2023-10-08T11:22:53;98658.13;;;29.47;25.33
22753;BME280;11543;43.144;24.684;2023-10-08T11:25:52;98660.91;;;29.32;25.13
22753;BME280;11543;43.144;24.684;2023-10-08T11:28:18;98648.00;;;29.07;25.31
22753;BME280;11543;43.144;24.684;2023-10-08T11:30:45;98638.91;;;29.01;26.08
22753;BME280;11543;43.144;24.684;2023-10-08T11:33:16;98647.75;;;29.03;25.65
22753;BME280;11543;43.144;24.684;2023-10-08T11:36:01;98646.63;;;29.09;25.96
22753;BME280;11543;43.144;24.684;2023-10-08T11:38:39;98646.59;;;29.14;26.24
22753;BME280;11543;43.144;24.684;2023-10-08T11:41:12;98643.81;;;29.25;25.95
22753;BME280;11543;43.144;24.684;2023-10-08T11:43:50;98649.59;;;29.28;25.70
22753;BME280;11543;43.144;24.684;2023-10-08T11:46:23;98644.34;;;29.32;26.17
22753;BME280;11543;43.144;24.684;2023-10-08T11:48:51;98645.41;;;29.46;25.70
22753;BME280;11543;43.144;24.684;2023-10-08T11:51:17;98628.81;;;29.46;25.71
22753;BME280;11543;43.144;24.684;2023-10-08T11:53:48;98634.84;;;29.63;25.26
22753;BME280;11543;43.144;24.684;2023-10-08T11:56:14;98625.41;;;29.69;25.06
22753;BME280;11543;43.144;24.684;2023-10-08T11:58:40;98620.94;;;29.78;25.08
22753;BME280;11543;43.144;24.684;2023-10-08T12:01:12;98627.88;;;29.76;25.02
22753;BME280;11543;43.144;24.684;2023-10-08T12:03:43;98628.84;;;29.95;24.63
22753;BME280;11543;43.144;24.684;2023-10-08T12:06:10;98619.22;;;29.88;25.18
22753;BME280;11543;43.144;24.684;2023-10-08T12:08:43;98599.84;;;29.93;25.27
22753;BME280;11543;43.144;24.684;2023-10-08T12:11:12;98616.69;;;29.96;25.19
22753;BME280;11543;43.144;24.684;2023-10-08T12:13:38;98600.09;;;29.96;24.87
22753;BME280;11543;43.144;24.684;2023-10-08T12:16:10;98605.91;;;29.95;24.80
22753;BME280;11543;43.144;24.684;2023-10-08T12:18:39;98603.13;;;29.95;24.87
22753;BME280;11543;43.144;24.684;2023-10-08T12:21:05;98610.31;;;29.96;25.40
22753;BME280;11543;43.144;24.684;2023-10-08T12:23:37;98599.22;;;30.01;24.88
22753;BME280;11543;43.144;24.684;2023-10-08T12:26:03;98595.28;;;30.12;25.13
22753;BME280;11543;43.144;24.684;2023-10-08T12:28:28;98593.59;;;30.16;25.31
22753;BME280;11543;43.144;24.684;2023-10-08T12:30:54;98569.91;;;30.05;25.00
22753;BME280;11543;43.144;24.684;2023-10-08T12:33:24;98570.47;;;30.02;24.80
22753;BME280;11543;43.144;24.684;2023-10-08T12:35:51;98578.72;;;30.07;25.06
22753;BME280;11543;43.144;24.684;2023-10-08T12:38:21;98583.19;;;30.03;25.44
22753;BME280;11543;43.144;24.684;2023-10-08T12:40:51;98577.94;;;29.96;24.91
22753;BME280;11543;43.144;24.684;2023-10-08T12:43:21;98571.66;;;29.86;25.25
22753;BME280;11543;43.144;24.684;2023-10-08T12:45:47;98563.97;;;29.77;25.13
22753;BME280;11543;43.144;24.684;2023-10-08T12:48:18;98555.16;;;29.75;24.97
22753;BME280;11543;43.144;24.684;2023-10-08T13:22:17;98579.66;;;29.33;25.76
22753;BME280;11543;43.144;24.684;2023-10-08T13:24:44;98594.91;;;29.25;25.79
22753;BME280;11543;43.144;24.684;2023-10-08T13:27:11;98577.00;;;29.12;25.75
22753;BME280;11543;43.144;24.684;2023-10-08T13:29:39;98584.72;;;29.15;25.97
22753;BME280;11543;43.144;24.684;2023-10-08T13:32:04;98586.38;;;29.16;25.95
22753;BME280;11543;43.144;24.684;2023-10-08T13:34:30;98583.88;;;29.15;25.82
22753;BME280;11543;43.144;24.684;2023-10-08T13:36:56;98575.34;;;29.11;25.92
22753;BME280;11543;43.144;24.684;2023-10-08T13:39:22;98582.25;;;29.09;25.96
22753;BME280;11543;43.144;24.684;2023-10-08T13:41:47;98574.84;;;28.94;26.10
22753;BME280;11543;43.144;24.684;2023-10-08T13:44:14;98568.78;;;28.92;26.07
22753;BME280;11543;43.144;24.684;2023-10-08T13:46:39;98573.22;;;28.88;26.59
22753;BME280;11543;43.144;24.684;2023-10-08T13:49:10;98571.25;;;28.94;26.08
22753;BME280;11543;43.144;24.684;2023-10-08T13:51:35;98587.00;;;28.93;26.23